createdAt,value
2023-04-16T00:00:37.669Z,26.13
2023-04-16T00:03:08.046Z,26.80
2023-04-16T00:05:35.877Z,24.90
2023-04-16T00:08:03.283Z,26.92
2023-04-16T00:10:32.558Z,29.63
2023-04-16T00:12:59.147Z,27.05
2023-04-16T00:15:25.910Z,28.57
2023-04-16T00:17:52.827Z,30.88
2023-04-16T00:20:20.473Z,29.37
2023-04-16T00:22:47.131Z,30.77
2023-04-16T00:25:14.141Z,26.77
2023-04-16T00:27:40.749Z,28.10
2023-04-16T00:30:07.894Z,27.40
2023-04-16T00:32:34.652Z,33.13
2023-04-16T00:35:01.310Z,28.90
2023-04-16T00:37:27.997Z,28.73
2023-04-16T00:39:54.680Z,33.97
2023-04-16T00:42:21.287Z,29.77
2023-04-16T00:44:47.921Z,30.13
2023-04-16T00:47:14.629Z,30.63
2023-04-16T00:49:41.426Z,28.33
2023-04-16T00:52:08.058Z,32.28
2023-04-16T00:54:34.819Z,29.33
2023-04-16T00:57:02.286Z,28.60
2023-04-16T00:59:29.569Z,28.37
2023-04-16T01:01:56.299Z,33.30
2023-04-16T01:04:23.214Z,33.50
2023-04-16T01:06:49.938Z,30.37
2023-04-16T01:09:16.954Z,31.15
2023-04-16T01:11:43.601Z,33.30
2023-04-16T01:14:11.160Z,28.40
2023-04-16T01:16:38.446Z,32.60
2023-04-16T01:19:05.306Z,32.88
2023-04-16T01:21:32.428Z,31.97
2023-04-16T01:24:03.658Z,27.73
2023-04-16T01:26:31.102Z,31.73
2023-04-16T01:28:57.939Z,29.40
2023-04-16T01:31:24.808Z,32.07
2023-04-16T01:33:51.513Z,30.40
2023-04-16T01:36:18.288Z,30.83
2023-04-16T01:38:44.954Z,34.93
2023-04-16T01:41:11.743Z,28.17
2023-04-16T01:43:40.169Z,31.37
2023-04-16T01:46:27.525Z,33.40
2023-04-16T01:48:55.014Z,30.97
2023-04-16T01:51:22.144Z,29.37
2023-04-16T01:53:49.871Z,31.70
2023-04-16T01:56:16.956Z,33.93
2023-04-16T01:58:43.680Z,30.53
2023-04-16T02:01:13.625Z,32.53
2023-04-16T02:03:43.130Z,30.67
2023-04-16T02:06:09.898Z,34.67
2023-04-16T02:08:36.570Z,34.60
2023-04-16T02:11:03.259Z,31.67
2023-04-16T02:13:29.913Z,31.50
2023-04-16T02:15:56.555Z,31.13
2023-04-16T02:18:23.216Z,29.73
2023-04-16T02:20:49.914Z,31.63
2023-04-16T02:23:17.447Z,33.70
2023-04-16T02:25:47.750Z,32.00
2023-04-16T02:28:16.834Z,33.03
2023-04-16T02:30:45.451Z,36.37
2023-04-16T02:33:12.468Z,31.07
2023-04-16T02:35:40.132Z,31.00
2023-04-16T02:38:07.609Z,31.70
2023-04-16T02:40:35.036Z,32.90
2023-04-16T02:43:02.012Z,34.20
2023-04-16T02:45:28.788Z,31.87
2023-04-16T02:47:55.455Z,29.77
2023-04-16T02:50:22.186Z,29.60
2023-04-16T02:52:48.937Z,36.70
2023-04-16T02:55:16.102Z,32.83
2023-04-16T02:57:42.789Z,40.30
2023-04-16T03:00:10.111Z,32.23
2023-04-16T03:02:36.871Z,37.67
2023-04-16T03:05:04.189Z,32.47
2023-04-16T03:07:30.942Z,31.60
2023-04-16T03:09:57.574Z,34.90
2023-04-16T03:12:24.256Z,32.55
2023-04-16T03:14:52.676Z,31.97
2023-04-16T03:17:19.454Z,35.43
2023-04-16T03:19:46.232Z,33.13
2023-04-16T03:22:12.976Z,35.67
2023-04-16T03:24:39.719Z,31.10
2023-04-16T03:27:06.384Z,32.50
2023-04-16T03:29:33.049Z,35.60
2023-04-16T03:31:59.656Z,33.33
2023-04-16T03:34:26.655Z,34.67
2023-04-16T03:36:53.229Z,33.97
2023-04-16T03:39:19.839Z,33.50
2023-04-16T03:41:47.495Z,36.00
2023-04-16T03:44:14.102Z,28.30
2023-04-16T03:46:40.966Z,34.10
2023-04-16T03:49:08.235Z,32.13
2023-04-16T03:51:35.160Z,36.00
2023-04-16T03:54:01.895Z,34.70
2023-04-16T03:56:28.523Z,33.43
2023-04-16T03:58:55.155Z,34.80
2023-04-16T04:01:21.763Z,35.53
2023-04-16T04:03:48.600Z,31.13
2023-04-16T04:06:15.362Z,32.53
2023-04-16T04:08:42.003Z,35.83
2023-04-16T04:11:08.631Z,39.73
2023-04-16T04:13:35.362Z,34.33
2023-04-16T04:16:02.132Z,32.63
2023-04-16T04:18:28.904Z,34.23
2023-04-16T04:20:55.544Z,36.60
2023-04-16T04:23:22.159Z,27.87
2023-04-16T04:25:49.149Z,32.67
2023-04-16T04:28:16.108Z,32.70
2023-04-16T04:30:42.715Z,33.50
2023-04-16T04:33:09.426Z,36.93
2023-04-16T04:35:36.031Z,31.10
2023-04-16T04:38:03.160Z,32.77
2023-04-16T04:40:29.781Z,35.67
2023-04-16T04:42:56.591Z,37.83
2023-04-16T04:45:25.658Z,33.90
2023-04-16T04:47:53.008Z,34.80
2023-04-16T04:50:19.789Z,38.00
2023-04-16T04:52:46.397Z,32.70
2023-04-16T04:55:15.772Z,31.10
2023-04-16T04:57:42.708Z,34.77
2023-04-16T05:00:09.804Z,36.40
2023-04-16T05:02:36.662Z,35.87
2023-04-16T05:05:04.380Z,35.27
2023-04-16T05:07:33.736Z,36.17
2023-04-16T05:10:00.796Z,33.10
2023-04-16T05:12:27.459Z,35.23
2023-04-16T05:14:54.183Z,38.95
2023-04-16T05:17:20.966Z,38.97
2023-04-16T05:19:47.772Z,33.57
2023-04-16T05:22:14.462Z,34.27
2023-04-16T05:24:41.132Z,32.03
2023-04-16T05:27:07.827Z,35.90
2023-04-16T05:29:34.462Z,32.77
2023-04-16T05:32:01.954Z,34.53
2023-04-16T05:34:28.704Z,37.67
2023-04-16T05:36:55.402Z,34.63
2023-04-16T05:39:22.117Z,36.08
2023-04-16T05:41:48.877Z,35.15
2023-04-16T05:44:18.116Z,36.13
2023-04-16T05:46:44.906Z,37.23
2023-04-16T05:49:11.910Z,36.10
2023-04-16T05:51:38.772Z,34.37
2023-04-16T05:54:05.683Z,35.90
2023-04-16T05:56:32.339Z,33.80
2023-04-16T05:58:59.040Z,31.50
2023-04-16T06:01:25.895Z,33.08
2023-04-16T06:03:52.758Z,35.83
2023-04-16T06:06:19.534Z,38.10
2023-04-16T06:08:46.415Z,31.83
2023-04-16T06:11:13.119Z,30.33
2023-04-16T06:13:39.915Z,30.95
2023-04-16T06:16:06.768Z,35.55
2023-04-16T06:18:33.438Z,31.30
2023-04-16T06:21:00.349Z,26.73
2023-04-16T06:23:27.145Z,34.00
2023-04-16T06:25:54.365Z,37.73
2023-04-16T06:28:21.118Z,32.00
2023-04-16T06:30:48.695Z,31.92
2023-04-16T06:33:15.427Z,36.00
2023-04-16T06:35:42.232Z,34.22
2023-04-16T06:38:08.949Z,30.35
2023-04-16T06:40:37.550Z,32.08
2023-04-16T06:43:04.244Z,28.47
2023-04-16T06:45:30.970Z,31.23
2023-04-16T06:47:59.107Z,36.70
2023-04-16T06:50:26.964Z,33.27
2023-04-16T06:52:55.572Z,32.80
2023-04-16T06:55:22.586Z,30.33
2023-04-16T06:57:49.323Z,31.23
2023-04-16T07:00:16.345Z,31.70
2023-04-16T07:02:43.240Z,33.88
2023-04-16T07:05:10.139Z,31.40
2023-04-16T07:07:37.038Z,31.02
2023-04-16T07:10:05.480Z,32.80
2023-04-16T07:12:33.157Z,32.85
2023-04-16T07:15:00.332Z,31.27
2023-04-16T07:17:27.302Z,33.60
2023-04-16T07:19:54.079Z,31.13
2023-04-16T07:22:21.103Z,29.37
2023-04-16T07:24:48.012Z,32.38
2023-04-16T07:27:14.924Z,33.08
2023-04-16T07:29:41.727Z,26.58
2023-04-16T07:32:08.769Z,29.02
2023-04-16T07:34:35.670Z,30.90
2023-04-16T07:37:02.452Z,26.95
2023-04-16T07:39:29.175Z,29.38
2023-04-16T07:41:56.089Z,26.42
2023-04-16T07:44:22.825Z,27.77
2023-04-16T07:46:49.694Z,26.40
2023-04-16T07:49:16.548Z,29.15
2023-04-16T07:51:43.560Z,28.50
2023-04-16T07:54:11.156Z,26.38
2023-04-16T07:56:37.918Z,25.77
2023-04-16T07:59:18.310Z,25.83
2023-04-16T08:01:48.531Z,28.40
2023-04-16T08:04:17.541Z,28.75
2023-04-16T08:06:44.393Z,25.90
2023-04-16T08:09:11.284Z,28.67
2023-04-16T08:11:38.324Z,24.63
2023-04-16T08:14:05.073Z,20.88
2023-04-16T08:16:31.853Z,25.33
2023-04-16T08:19:01.003Z,27.98
2023-04-16T08:21:28.284Z,26.25
2023-04-16T08:23:55.000Z,27.77
2023-04-16T08:26:21.764Z,28.02
2023-04-16T08:28:48.623Z,26.67
2023-04-16T08:31:15.376Z,22.95
2023-04-16T08:33:42.223Z,25.98
2023-04-16T08:36:09.232Z,24.05
2023-04-16T08:38:36.029Z,26.30
2023-04-16T08:41:03.679Z,23.52
2023-04-16T08:43:33.753Z,26.38
2023-04-16T08:46:01.268Z,25.08
2023-04-16T08:48:33.686Z,22.25
2023-04-16T08:51:02.420Z,24.50
2023-04-16T08:53:33.333Z,23.00
2023-04-16T08:56:04.863Z,20.80
2023-04-16T08:58:34.706Z,19.55
2023-04-16T09:01:03.919Z,18.58
2023-04-16T09:03:36.439Z,18.90
2023-04-16T09:06:04.570Z,16.77
2023-04-16T09:08:32.350Z,20.02
2023-04-16T09:10:59.664Z,17.77
2023-04-16T09:13:27.061Z,19.80
2023-04-16T09:15:54.787Z,18.40
2023-04-16T09:18:21.713Z,19.63
2023-04-16T09:20:49.781Z,14.07
2023-04-16T09:23:16.645Z,15.85
2023-04-16T09:25:45.309Z,15.93
2023-04-16T09:28:13.858Z,15.20
2023-04-16T09:30:41.146Z,14.70
2023-04-16T09:33:17.856Z,14.25
2023-04-16T09:35:46.697Z,14.07
2023-04-16T09:38:13.544Z,16.52
2023-04-16T09:40:40.496Z,15.45
2023-04-16T09:43:18.044Z,13.93
2023-04-16T09:45:52.367Z,14.80
2023-04-16T09:48:32.413Z,13.77
2023-04-16T09:51:00.542Z,13.35
2023-04-16T09:53:29.066Z,10.75
2023-04-16T09:56:00.772Z,12.02
2023-04-16T09:58:29.796Z,13.07
2023-04-16T10:01:03.753Z,12.25
2023-04-16T10:03:32.138Z,12.07
2023-04-16T10:06:14.734Z,12.38
2023-04-16T10:08:58.524Z,12.68
2023-04-16T10:11:25.931Z,10.50
2023-04-16T10:13:52.754Z,9.88
2023-04-16T10:16:19.644Z,11.77
2023-04-16T10:18:47.284Z,11.80
2023-04-16T10:21:16.756Z,10.30
2023-04-16T10:23:44.018Z,10.68
2023-04-16T10:26:10.927Z,10.55
2023-04-16T10:28:37.682Z,9.93
2023-04-16T10:31:07.463Z,9.15
2023-04-16T10:33:40.822Z,9.65
2023-04-16T10:36:08.099Z,10.05
2023-04-16T10:38:35.453Z,9.55
2023-04-16T10:41:03.635Z,10.95
2023-04-16T10:43:31.715Z,13.98
2023-04-16T10:46:18.005Z,10.65
2023-04-16T10:51:34.922Z,11.38
2023-04-16T10:54:20.086Z,10.75
2023-04-16T10:56:47.430Z,12.50
2023-04-16T10:59:18.424Z,9.13
2023-04-16T11:02:00.183Z,10.02
2023-04-16T11:04:29.974Z,8.40
2023-04-16T11:07:06.201Z,10.02
2023-04-16T11:09:53.673Z,9.15
2023-04-16T11:12:44.957Z,8.77
2023-04-16T11:15:16.200Z,9.80
2023-04-16T11:17:43.683Z,9.40
2023-04-16T11:20:19.097Z,10.93
2023-04-16T11:22:48.135Z,11.32
2023-04-16T11:25:20.850Z,11.57
2023-04-16T11:27:47.634Z,11.93
2023-04-16T11:30:14.520Z,7.95
2023-04-16T11:32:41.506Z,9.07
2023-04-16T11:35:16.675Z,9.25
2023-04-16T11:37:44.005Z,9.70
2023-04-16T11:40:11.786Z,9.23
2023-04-16T11:42:44.773Z,10.65
2023-04-16T11:45:12.421Z,8.70
2023-04-16T11:47:52.799Z,8.75
2023-04-16T11:50:29.800Z,10.93
2023-04-16T11:53:03.957Z,9.32
2023-04-16T11:57:57.949Z,9.40
2023-04-16T12:00:25.082Z,11.30
2023-04-16T12:02:58.971Z,9.65
2023-04-16T12:05:38.902Z,9.55
2023-04-16T12:08:10.611Z,8.45
2023-04-16T12:10:58.389Z,8.68
2023-04-16T12:13:25.067Z,11.10
2023-04-16T12:15:54.006Z,7.47
2023-04-16T12:18:23.040Z,8.18
2023-04-16T12:20:53.424Z,8.23
2023-04-16T12:23:23.577Z,11.93
2023-04-16T12:25:52.083Z,8.13
2023-04-16T12:28:38.337Z,8.13
2023-04-16T12:31:08.576Z,8.63
2023-04-16T12:33:35.562Z,8.70
2023-04-16T12:36:17.405Z,9.05
2023-04-16T12:38:44.201Z,8.93
2023-04-16T12:41:10.914Z,7.45
2023-04-16T12:43:37.650Z,8.93
2023-04-16T12:46:04.905Z,6.75
2023-04-16T12:48:32.661Z,8.57
2023-04-16T12:50:59.427Z,7.78
2023-04-16T12:53:26.209Z,8.25
2023-04-16T12:55:53.212Z,10.43
2023-04-16T12:58:19.920Z,6.95
2023-04-16T13:00:46.627Z,6.82
2023-04-16T13:03:13.594Z,5.95
2023-04-16T13:05:40.634Z,5.35
2023-04-16T13:08:07.358Z,7.72
2023-04-16T13:10:35.162Z,6.15
2023-04-16T13:13:01.855Z,6.78
2023-04-16T13:15:28.964Z,8.70
2023-04-16T13:17:55.867Z,6.80
2023-04-16T13:20:24.401Z,7.72
2023-04-16T13:22:51.500Z,7.18
2023-04-16T13:25:18.223Z,7.28
2023-04-16T13:27:44.942Z,5.68
2023-04-16T13:30:12.026Z,7.35
2023-04-16T13:32:38.771Z,6.75
2023-04-16T13:35:06.146Z,5.55
2023-04-16T13:37:33.173Z,5.60
2023-04-16T13:39:59.926Z,6.43
2023-04-16T13:42:26.874Z,5.28
2023-04-16T13:44:55.069Z,4.80
2023-04-16T13:47:22.127Z,5.90
2023-04-16T13:49:49.027Z,5.53
2023-04-16T13:52:15.666Z,5.45
2023-04-16T13:54:42.829Z,5.80
2023-04-16T13:57:09.733Z,5.40
2023-04-16T13:59:36.454Z,4.93
2023-04-16T14:02:03.653Z,5.32
2023-04-16T14:04:30.570Z,6.40
2023-04-16T14:06:57.395Z,7.05
2023-04-16T14:09:24.508Z,5.30
2023-04-16T14:11:52.498Z,12.38
2023-04-16T14:14:21.612Z,9.88
2023-04-16T14:16:48.348Z,7.50
2023-04-16T14:19:15.198Z,11.50
2023-04-16T14:21:41.834Z,7.53
2023-04-16T14:24:09.248Z,6.15
2023-04-16T14:26:35.987Z,6.60
2023-04-16T14:29:02.643Z,6.13
2023-04-16T14:31:29.282Z,7.05
2023-04-16T14:33:56.071Z,8.20
2023-04-16T14:36:22.732Z,6.90
2023-04-16T14:38:49.434Z,8.38
2023-04-16T14:41:16.159Z,8.18
2023-04-16T14:43:44.438Z,8.82
2023-04-16T14:46:11.108Z,7.97
2023-04-16T14:48:38.989Z,9.52
2023-04-16T14:51:07.240Z,12.45
2023-04-16T14:53:34.454Z,8.75
2023-04-16T14:56:01.705Z,9.30
2023-04-16T14:58:28.546Z,8.95
2023-04-16T15:00:55.586Z,8.27
2023-04-16T15:03:22.593Z,7.85
2023-04-16T15:05:55.462Z,8.68
2023-04-16T15:08:23.241Z,7.93
2023-04-16T15:10:51.185Z,8.13
2023-04-16T15:13:18.202Z,7.78
2023-04-16T15:15:45.051Z,8.65
2023-04-16T15:18:11.772Z,8.52
2023-04-16T15:20:38.685Z,7.28
2023-04-16T15:23:05.378Z,8.75
2023-04-16T15:25:32.532Z,8.10
2023-04-16T15:27:59.580Z,7.28
2023-04-16T15:30:26.505Z,7.38
2023-04-16T15:32:55.053Z,6.38
2023-04-16T15:35:22.038Z,7.05
2023-04-16T15:37:48.947Z,8.07
2023-04-16T15:40:18.730Z,7.53
2023-04-16T15:42:45.662Z,7.60
2023-04-16T15:45:12.345Z,7.82
2023-04-16T15:47:41.489Z,7.40
2023-04-16T15:50:08.778Z,6.68
2023-04-16T15:52:36.365Z,6.25
2023-04-16T15:55:04.354Z,9.32
2023-04-16T15:57:31.414Z,7.35
2023-04-16T16:00:05.786Z,6.13
2023-04-16T16:02:33.812Z,7.55
2023-04-16T16:05:00.975Z,9.00
2023-04-16T16:07:27.640Z,7.43
2023-04-16T16:09:54.292Z,7.47
2023-04-16T16:12:20.920Z,6.45
2023-04-16T16:14:47.784Z,11.00
2023-04-16T16:17:14.433Z,7.38
2023-04-16T16:19:41.197Z,8.07
2023-04-16T16:22:09.665Z,6.82
2023-04-16T16:24:36.279Z,8.73
2023-04-16T16:27:02.993Z,8.95
2023-04-16T16:29:29.674Z,7.85
2023-04-16T16:31:56.497Z,7.10
2023-04-16T16:34:23.188Z,7.72
2023-04-16T16:36:49.935Z,8.98
2023-04-16T16:39:16.558Z,7.40
2023-04-16T16:41:43.231Z,9.93
2023-04-16T16:44:10.356Z,6.75
2023-04-16T16:46:37.294Z,7.32
2023-04-16T16:49:06.039Z,7.43
2023-04-16T16:51:34.003Z,6.22
2023-04-16T16:54:00.732Z,7.05
2023-04-16T16:56:28.004Z,6.82
2023-04-16T16:58:54.727Z,8.80
2023-04-16T17:01:21.373Z,8.88
2023-04-16T17:03:48.115Z,6.57
2023-04-16T17:06:14.941Z,7.40
2023-04-16T17:08:41.818Z,9.93
2023-04-16T17:11:08.619Z,6.30
2023-04-16T17:13:35.558Z,8.15
2023-04-16T17:16:02.428Z,8.38
2023-04-16T17:18:29.326Z,7.65
2023-04-16T17:20:56.153Z,6.28
2023-04-16T17:23:22.902Z,8.50
2023-04-16T17:25:49.835Z,8.02
2023-04-16T17:28:16.504Z,8.88
2023-04-16T17:30:43.274Z,6.63
2023-04-16T17:33:10.052Z,5.70
2023-04-16T17:35:36.692Z,7.75
2023-04-16T17:38:03.298Z,7.55
2023-04-16T17:40:29.899Z,7.03
2023-04-16T17:42:56.554Z,9.07
2023-04-16T17:45:23.312Z,6.82
2023-04-16T17:47:50.011Z,8.80
2023-04-16T17:50:16.715Z,6.57
2023-04-16T17:52:43.774Z,6.68
2023-04-16T17:55:11.157Z,9.27
2023-04-16T17:57:37.848Z,7.90
2023-04-16T18:00:14.426Z,7.78
2023-04-16T18:02:41.485Z,8.55
2023-04-16T18:05:08.920Z,8.32
2023-04-16T18:07:36.553Z,6.20
2023-04-16T18:10:03.320Z,5.28
2023-04-16T18:12:29.995Z,8.17
2023-04-16T18:14:56.670Z,8.27
2023-04-16T18:17:23.504Z,7.37
2023-04-16T18:19:50.536Z,6.63
2023-04-16T18:22:17.253Z,9.60
2023-04-16T18:24:43.872Z,7.77
2023-04-16T18:27:10.567Z,7.40
2023-04-16T18:29:39.687Z,7.20
2023-04-16T18:32:09.907Z,7.90
2023-04-16T18:34:38.555Z,7.97
2023-04-16T18:37:05.344Z,7.37
2023-04-16T18:39:35.890Z,8.43
2023-04-16T18:42:03.823Z,7.80
2023-04-16T18:44:30.881Z,8.83
2023-04-16T18:46:57.770Z,8.20
2023-04-16T18:49:24.943Z,6.00
2023-04-16T18:51:51.771Z,7.83
2023-04-16T18:54:19.911Z,7.53
2023-04-16T18:56:46.557Z,9.33
2023-04-16T18:59:13.652Z,10.73
2023-04-16T19:01:40.459Z,8.00
2023-04-16T19:04:07.132Z,7.07
2023-04-16T19:06:33.815Z,7.00
2023-04-16T19:09:00.526Z,8.43
2023-04-16T19:11:27.222Z,6.63
2023-04-16T19:13:54.003Z,8.30
2023-04-16T19:16:20.949Z,7.30
2023-04-16T19:18:47.605Z,8.33
2023-04-16T19:21:14.466Z,8.37
2023-04-16T19:23:41.208Z,11.23
2023-04-16T19:26:07.822Z,7.17
2023-04-16T19:28:34.536Z,8.53
2023-04-16T19:31:01.350Z,8.97
2023-04-16T19:33:28.172Z,10.30
2023-04-16T19:35:54.889Z,8.50
2023-04-16T19:38:21.487Z,9.73
2023-04-16T19:40:48.891Z,8.93
2023-04-16T19:43:15.747Z,7.50
2023-04-16T19:45:52.542Z,7.80
2023-04-16T19:48:19.970Z,9.77
2023-04-16T19:50:46.770Z,8.20
2023-04-16T19:53:13.378Z,10.13
2023-04-16T19:55:41.261Z,11.97
2023-04-16T19:58:09.459Z,10.77
2023-04-16T20:00:37.291Z,10.77
2023-04-16T20:03:04.864Z,10.30
2023-04-16T20:05:31.615Z,10.67
2023-04-16T20:07:58.278Z,9.80
2023-04-16T20:10:26.467Z,10.23
2023-04-16T20:12:53.351Z,11.43
2023-04-16T20:15:20.078Z,12.00
2023-04-16T20:17:46.774Z,11.03
2023-04-16T20:20:15.763Z,10.87
2023-04-16T20:22:43.382Z,10.93
2023-04-16T20:25:10.148Z,11.13
2023-04-16T20:27:36.832Z,12.57
2023-04-16T20:30:05.507Z,9.90
2023-04-16T20:32:32.389Z,9.97
2023-04-16T20:34:59.731Z,11.80
2023-04-16T20:37:26.322Z,10.47
2023-04-16T20:39:54.157Z,11.43
2023-04-16T20:42:22.733Z,11.07
2023-04-16T20:44:50.601Z,10.43
2023-04-16T20:47:17.373Z,10.70
2023-04-16T20:49:46.992Z,14.90
2023-04-16T20:52:14.276Z,10.73
2023-04-16T20:54:40.945Z,14.63
2023-04-16T20:57:07.648Z,11.30
2023-04-16T20:59:34.387Z,11.33
2023-04-16T21:02:01.054Z,12.77
2023-04-16T21:04:27.871Z,11.57
2023-04-16T21:06:55.038Z,11.33
2023-04-16T21:09:21.849Z,13.17
2023-04-16T21:11:48.618Z,12.17
2023-04-16T21:14:15.508Z,12.37
2023-04-16T21:16:42.169Z,11.60
2023-04-16T21:19:09.089Z,14.50
2023-04-16T21:21:36.549Z,12.27
2023-04-16T21:24:03.316Z,11.67
2023-04-16T21:26:29.951Z,9.53
2023-04-16T21:28:56.618Z,13.80
2023-04-16T21:31:23.410Z,15.17
2023-04-16T21:33:50.130Z,12.47
2023-04-16T21:36:19.469Z,13.70
2023-04-16T21:38:46.102Z,14.90
2023-04-16T21:41:15.464Z,13.27
2023-04-16T21:43:42.083Z,13.00
2023-04-16T21:46:08.739Z,13.67
2023-04-16T21:48:35.527Z,11.67
2023-04-16T21:51:06.585Z,13.23
2023-04-16T21:53:34.017Z,12.40
2023-04-16T21:56:00.728Z,16.53
2023-04-16T21:58:27.344Z,15.37
2023-04-16T22:00:54.247Z,18.07
2023-04-16T22:03:28.155Z,16.57
2023-04-16T22:06:02.564Z,16.52
2023-04-16T22:10:59.945Z,13.33
2023-04-16T22:13:27.873Z,14.20
2023-04-16T22:15:55.186Z,14.50
2023-04-16T22:18:24.331Z,16.57
2023-04-16T22:20:55.002Z,15.70
2023-04-16T22:23:22.986Z,14.50
2023-04-16T22:25:49.620Z,14.93
2023-04-16T22:28:16.288Z,14.23
2023-04-16T22:30:42.941Z,13.33
2023-04-16T22:33:09.580Z,16.97
2023-04-16T22:35:36.250Z,14.03
2023-04-16T22:38:02.863Z,17.83
2023-04-16T22:40:32.516Z,14.90
2023-04-16T22:42:59.174Z,14.77
2023-04-16T22:45:26.137Z,21.53
2023-04-16T22:47:52.905Z,14.73
2023-04-16T22:50:19.708Z,14.03
2023-04-16T22:52:46.349Z,19.30
2023-04-16T22:55:13.060Z,16.17
2023-04-16T22:57:39.816Z,14.40
2023-04-16T23:00:09.864Z,14.80
2023-04-16T23:02:39.780Z,13.13
2023-04-16T23:05:06.890Z,15.37
2023-04-16T23:07:34.109Z,14.53
2023-04-16T23:10:00.763Z,16.77
2023-04-16T23:12:27.368Z,13.67
2023-04-16T23:14:54.207Z,16.03
2023-04-16T23:17:21.109Z,13.90
2023-04-16T23:19:47.766Z,16.43
2023-04-16T23:22:14.370Z,14.83
2023-04-16T23:24:41.380Z,17.90
2023-04-16T23:27:08.283Z,15.07
2023-04-16T23:29:35.086Z,14.33
2023-04-16T23:32:03.109Z,13.07
2023-04-16T23:34:29.808Z,15.10
2023-04-16T23:36:56.465Z,14.53
2023-04-16T23:39:23.140Z,15.10
2023-04-16T23:41:49.833Z,14.40
2023-04-16T23:44:16.510Z,14.73
2023-04-16T23:46:43.207Z,14.33
2023-04-16T23:49:10.143Z,12.87
2023-04-16T23:51:37.043Z,13.03
2023-04-16T23:54:03.751Z,17.23
2023-04-16T23:56:30.360Z,14.90
2023-04-16T23:58:57.098Z,15.00
